Time;durP1;ratioP1;P1;durP2;ratioP2;P2;SDS_P1;SDS_P2;PMS_P1;PMS_P2;Temp;Humidity;BMP_temperature;BMP_pressure;BME280_temperature;BME280_humidity;BME280_pressure;Samples;Min_cycle;Max_cycle;Signal;HPM_P1;HPM_P2
2021/10/10 00:00:12;;;;;;;11.30;7.47;;;6.40;97.80;;;;;;6238810;23;20000;-80
2021/10/10 00:02:38;;;;;;;14.75;9.10;;;6.40;97.80;;;;;;6240177;23;20004;-81
2021/10/10 00:05:04;;;;;;;14.88;8.20;;;6.30;97.80;;;;;;6238527;23;20004;-83
2021/10/10 00:07:30;;;;;;;14.25;7.90;;;6.40;97.90;;;;;;6240770;23;20143;-82
2021/10/10 00:09:55;;;;;;;12.35;8.75;;;6.30;97.80;;;;;;6241465;23;20054;-81
2021/10/10 00:12:21;;;;;;;12.63;7.93;;;6.30;97.90;;;;;;6241627;23;20004;-79
2021/10/10 00:14:46;;;;;;;12.40;7.88;;;6.30;98.00;;;;;;6241460;23;20443;-79
2021/10/10 00:17:12;;;;;;;14.90;8.35;;;6.20;98.00;;;;;;6241653;23;20322;-80
2021/10/10 00:19:37;;;;;;;13.63;9.27;;;6.20;98.00;;;;;;6241074;23;20004;-80
2021/10/10 00:22:03;;;;;;;13.80;8.32;;;6.20;98.00;;;;;;6242106;23;20319;-79
2021/10/10 00:24:28;;;;;;;14.05;8.32;;;6.20;98.00;;;;;;6242021;23;20075;-80
2021/10/10 00:26:54;;;;;;;12.88;8.98;;;6.20;98.00;;;;;;6240662;23;20012;-79
2021/10/10 00:29:19;;;;;;;14.98;10.48;;;6.20;98.10;;;;;;6239206;23;20364;-82
2021/10/10 00:31:45;;;;;;;12.90;9.15;;;6.10;98.10;;;;;;6241893;23;20000;-83
2021/10/10 00:34:11;;;;;;;15.43;10.05;;;6.10;98.20;;;;;;6241930;23;20485;-83
2021/10/10 00:36:37;;;;;;;16.02;10.25;;;6.10;98.20;;;;;;6240720;23;20446;-79
2021/10/10 00:39:02;;;;;;;14.73;9.65;;;6.10;98.20;;;;;;6240872;23;20004;-80
2021/10/10 00:41:28;;;;;;;14.10;10.45;;;6.00;98.20;;;;;;6240181;23;20035;-80
2021/10/10 00:43:53;;;;;;;13.07;9.00;;;6.00;98.20;;;;;;6242442;23;20015;-80
2021/10/10 00:46:19;;;;;;;14.07;9.43;;;6.00;98.30;;;;;;6242142;23;20004;-81
2021/10/10 00:48:45;;;;;;;17.25;9.23;;;6.00;98.40;;;;;;6240969;23;20004;-80
2021/10/10 00:51:11;;;;;;;18.02;9.35;;;6.00;98.40;;;;;;6241705;23;20000;-80
2021/10/10 00:53:38;;;;;;;12.40;8.23;;;6.00;98.50;;;;;;6240193;23;20004;-83
2021/10/10 00:56:05;;;;;;;11.50;8.02;;;6.00;98.50;;;;;;6241444;23;20075;-80
2021/10/10 00:58:31;;;;;;;11.52;7.85;;;6.00;98.50;;;;;;6241518;23;20050;-81
2021/10/10 01:00:57;;;;;;;12.68;8.43;;;5.90;98.50;;;;;;6239771;23;20083;-79
2021/10/10 01:03:23;;;;;;;14.80;8.88;;;5.90;98.50;;;;;;6242546;23;20000;-80
2021/10/10 01:05:49;;;;;;;12.00;7.90;;;5.90;98.50;;;;;;6241577;23;20082;-79
2021/10/10 01:08:16;;;;;;;14.02;8.65;;;5.90;98.50;;;;;;6240941;23;20011;-80
2021/10/10 01:10:44;;;;;;;12.32;7.47;;;5.90;98.60;;;;;;6241328;23;20003;-81
2021/10/10 01:13:12;;;;;;;12.85;8.23;;;5.90;98.50;;;;;;6241517;23;20430;-80
2021/10/10 01:15:37;;;;;;;9.93;7.53;;;6.00;98.60;;;;;;6240358;23;20007;-79
2021/10/10 01:18:03;;;;;;;11.38;7.47;;;5.90;98.60;;;;;;6240084;23;20004;-79
2021/10/10 01:20:36;;;;;;;11.90;8.65;;;5.90;98.60;;;;;;6240179;23;20004;-79
2021/10/10 01:23:02;;;;;;;12.05;7.57;;;5.90;98.60;;;;;;6239697;23;20036;-81
2021/10/10 01:25:27;;;;;;;16.55;8.50;;;5.90;98.60;;;;;;6241102;23;20004;-79
2021/10/10 01:27:53;;;;;;;11.38;7.57;;;5.90;98.70;;;;;;6241236;23;20031;-78
2021/10/10 01:30:18;;;;;;;12.85;8.35;;;5.90;98.70;;;;;;6241467;23;20334;-79
2021/10/10 01:32:53;;;;;;;13.52;7.25;;;5.90;98.70;;;;;;6239779;23;20022;-81
2021/10/10 01:35:18;;;;;;;12.35;8.65;;;5.90;98.70;;;;;;6241545;23;20000;-79
2021/10/10 01:37:44;;;;;;;11.30;7.90;;;5.90;98.70;;;;;;6240821;23;19999;-80
2021/10/10 01:40:10;;;;;;;13.23;8.82;;;5.90;98.70;;;;;;6239602;23;19996;-81
2021/10/10 01:42:36;;;;;;;11.98;8.43;;;5.80;98.70;;;;;;6241387;22;20351;-79
2021/10/10 01:45:01;;;;;;;11.68;7.85;;;5.80;98.70;;;;;;6240733;23;20007;-78
2021/10/10 01:47:27;;;;;;;12.60;8.77;;;5.80;98.80;;;;;;6241708;23;20056;-78
2021/10/10 01:49:52;;;;;;;11.93;8.48;;;5.80;98.80;;;;;;6240428;23;20000;-79
2021/10/10 01:52:18;;;;;;;12.43;8.18;;;5.80;98.90;;;;;;6240998;23;20442;-79
2021/10/10 01:54:43;;;;;;;14.15;8.52;;;5.70;98.90;;;;;;6239330;23;20004;-82
2021/10/10 01:57:08;;;;;;;14.43;7.88;;;5.70;98.80;;;;;;6241187;23;20520;-79
2021/10/10 01:59:34;;;;;;;16.02;8.85;;;5.70;98.90;;;;;;6240679;23;20000;-78
2021/10/10 02:01:59;;;;;;;10.07;7.53;;;5.70;98.90;;;;;;6240395;23;20091;-79
2021/10/10 02:04:25;;;;;;;18.25;9.48;;;5.70;99.10;;;;;;6239011;23;20435;-79
2021/10/10 02:06:50;;;;;;;11.65;7.70;;;5.70;98.90;;;;;;6240370;23;20062;-80
2021/10/10 02:09:16;;;;;;;13.57;9.10;;;5.70;98.80;;;;;;6240542;23;20000;-80
2021/10/10 02:11:41;;;;;;;17.63;9.85;;;5.70;98.80;;;;;;6239435;23;20056;-79
2021/10/10 02:14:07;;;;;;;13.77;8.40;;;5.70;98.80;;;;;;6241110;23;20018;-78
2021/10/10 02:16:32;;;;;;;14.95;9.40;;;5.70;98.90;;;;;;6239924;23;20000;-79
2021/10/10 02:18:58;;;;;;;14.50;7.93;;;5.70;98.90;;;;;;6239157;23;20008;-79
2021/10/10 02:21:23;;;;;;;14.07;9.40;;;5.70;98.90;;;;;;6240877;23;20493;-78
2021/10/10 02:23:49;;;;;;;12.82;8.57;;;5.70;98.90;;;;;;6241248;23;20000;-82
2021/10/10 02:26:14;;;;;;;13.77;8.95;;;5.70;98.90;;;;;;6238889;23;20008;-79
2021/10/10 02:28:40;;;;;;;11.35;8.40;;;5.70;98.90;;;;;;6239149;23;20047;-80
2021/10/10 02:31:05;;;;;;;15.05;9.25;;;5.70;98.80;;;;;;6238943;23;20327;-80
2021/10/10 02:33:31;;;;;;;12.68;8.30;;;5.60;98.80;;;;;;6239837;23;20043;-81
2021/10/10 02:35:56;;;;;;;12.73;8.80;;;5.60;98.80;;;;;;6240838;23;20581;-80
2021/10/10 02:38:22;;;;;;;13.23;8.80;;;5.60;98.80;;;;;;6240147;23;20003;-79
2021/10/10 02:40:47;;;;;;;15.85;8.98;;;5.60;98.80;;;;;;6240188;23;20098;-81
2021/10/10 02:43:13;;;;;;;13.85;8.50;;;5.60;98.70;;;;;;6239523;23;20331;-82
2021/10/10 02:45:38;;;;;;;13.50;9.00;;;5.50;98.70;;;;;;6240730;23;20378;-80
2021/10/10 02:48:05;;;;;;;15.68;9.52;;;5.50;98.70;;;;;;6238810;23;20042;-82
2021/10/10 02:50:31;;;;;;;14.63;8.73;;;5.50;98.70;;;;;;6240493;23;20415;-80
2021/10/10 02:52:56;;;;;;;11.38;8.30;;;5.40;98.60;;;;;;6240222;23;20015;-82
2021/10/10 02:55:22;;;;;;;10.50;8.32;;;5.40;98.60;;;;;;6239155;23;20003;-82
2021/10/10 02:57:48;;;;;;;11.98;8.18;;;5.30;98.60;;;;;;6240137;23;20477;-80
2021/10/10 03:00:13;;;;;;;12.77;9.23;;;5.30;98.70;;;;;;6240817;23;20385;-80
2021/10/10 03:02:39;;;;;;;16.23;9.10;;;5.20;98.70;;;;;;6238874;23;20091;-80
2021/10/10 03:05:05;;;;;;;13.30;8.68;;;5.20;98.80;;;;;;6241053;23;20024;-80
2021/10/10 03:07:30;;;;;;;14.82;8.77;;;5.10;98.90;;;;;;6240532;23;20004;-80
2021/10/10 03:09:56;;;;;;;14.38;8.55;;;5.10;99.00;;;;;;6240202;23;20076;-81
2021/10/10 03:12:21;;;;;;;13.15;8.48;;;5.10;99.00;;;;;;6241102;23;20035;-82
2021/10/10 03:14:47;;;;;;;15.15;9.25;;;5.00;99.10;;;;;;6241962;23;20008;-83
2021/10/10 03:17:12;;;;;;;13.82;9.25;;;5.00;99.20;;;;;;6241151;23;20509;-82
2021/10/10 03:19:38;;;;;;;14.80;9.45;;;4.90;99.30;;;;;;6239303;23;20510;-81
2021/10/10 03:22:03;;;;;;;13.43;8.98;;;4.90;99.30;;;;;;6238703;23;19996;-79
2021/10/10 03:24:29;;;;;;;14.93;8.73;;;4.80;99.40;;;;;;6241072;23;20004;-80
2021/10/10 03:26:54;;;;;;;14.13;9.40;;;4.90;99.50;;;;;;6240334;23;20010;-82
2021/10/10 03:29:20;;;;;;;16.92;8.93;;;4.80;99.60;;;;;;6240098;23;20004;-81
2021/10/10 03:31:45;;;;;;;17.25;10.38;;;4.80;99.50;;;;;;6240573;23;19992;-80
2021/10/10 03:34:11;;;;;;;13.50;8.27;;;4.80;99.60;;;;;;6239139;23;20114;-80
2021/10/10 03:36:37;;;;;;;14.57;9.13;;;4.70;99.60;;;;;;6240678;23;20004;-80
2021/10/10 03:39:03;;;;;;;13.77;8.98;;;4.70;99.60;;;;;;6238494;23;20004;-80
2021/10/10 03:41:28;;;;;;;16.13;9.75;;;4.70;99.60;;;;;;6241621;23;20079;-80
2021/10/10 03:43:54;;;;;;;14.75;9.40;;;4.70;99.60;;;;;;6244106;23;20000;-82
2021/10/10 03:46:19;;;;;;;16.88;10.02;;;4.70;99.60;;;;;;6242444;23;20034;-81
2021/10/10 03:48:45;;;;;;;14.15;9.18;;;4.70;99.60;;;;;;6243278;23;19996;-80
2021/10/10 03:51:10;;;;;;;14.82;9.93;;;4.70;99.60;;;;;;6240638;23;20009;-79
2021/10/10 03:54:42;;;;;;;16.05;9.93;;;4.70;99.50;;;;;;6242514;23;20358;-80
2021/10/10 03:56:24;;;;;;;17.20;10.65;;;4.60;99.50;;;;;;6234501;23;20091;-80
2021/10/10 03:58:50;;;;;;;14.32;10.18;;;4.60;99.50;;;;;;6241662;23;20043;-80
2021/10/10 04:01:16;;;;;;;15.55;9.73;;;4.60;99.50;;;;;;6242438;22;19996;-81
2021/10/10 04:03:41;;;;;;;23.13;9.85;;;4.60;99.60;;;;;;6241861;23;20008;-81
2021/10/10 04:06:07;;;;;;;15.35;9.80;;;4.50;99.70;;;;;;6240480;23;20004;-83
2021/10/10 04:08:33;;;;;;;16.02;10.13;;;4.50;99.70;;;;;;6240030;23;20004;-79
2021/10/10 04:10:58;;;;;;;17.42;10.63;;;4.50;99.70;;;;;;6241640;23;20384;-81
2021/10/10 04:13:24;;;;;;;18.83;11.27;;;4.50;99.90;;;;;;6241568;23;20016;-80
2021/10/10 04:15:49;;;;;;;16.08;10.75;;;4.50;99.90;;;;;;6242619;23;20004;-80
2021/10/10 04:18:15;;;;;;;14.90;9.65;;;4.50;99.90;;;;;;6241433;23;20008;-81
2021/10/10 04:20:40;;;;;;;14.85;9.57;;;4.50;99.90;;;;;;6240883;23;20000;-81
2021/10/10 04:23:06;;;;;;;15.90;11.13;;;4.40;99.90;;;;;;6239866;23;20083;-82
2021/10/10 04:25:31;;;;;;;16.65;10.35;;;4.40;99.90;;;;;;6242188;23;20004;-80
2021/10/10 04:27:57;;;;;;;16.33;10.25;;;4.40;99.90;;;;;;6241491;23;20086;-80
2021/10/10 04:30:22;;;;;;;16.55;10.85;;;4.40;99.90;;;;;;6241075;23;20004;-81
2021/10/10 04:32:48;;;;;;;17.15;10.35;;;4.40;99.90;;;;;;6241608;23;20489;-81
2021/10/10 04:35:14;;;;;;;13.80;9.40;;;4.40;99.90;;;;;;6242028;23;20049;-80
2021/10/10 04:37:40;;;;;;;15.50;10.10;;;4.40;99.90;;;;;;6242144;23;20049;-79
2021/10/10 04:40:06;;;;;;;12.90;9.68;;;4.30;99.90;;;;;;6241364;22;20028;-82
2021/10/10 04:42:36;;;;;;;16.88;11.02;;;4.30;99.90;;;;;;6241704;23;20000;-81
2021/10/10 04:45:03;;;;;;;18.17;11.45;;;4.40;99.90;;;;;;6240845;23;20012;-84
2021/10/10 04:47:28;;;;;;;18.48;9.90;;;4.30;99.90;;;;;;6241718;23;20004;-82
2021/10/10 04:49:54;;;;;;;16.90;10.32;;;4.30;99.90;;;;;;6240347;23;20062;-83
2021/10/10 04:52:19;;;;;;;15.90;10.50;;;4.30;99.90;;;;;;6241269;23;20091;-82
2021/10/10 04:54:47;;;;;;;16.30;10.50;;;4.30;99.90;;;;;;6265968;22;20008;-81
2021/10/10 04:57:14;;;;;;;15.35;9.93;;;4.30;99.90;;;;;;6240330;23;20043;-79
2021/10/10 04:59:40;;;;;;;19.13;11.15;;;4.20;99.90;;;;;;6240773;23;20028;-81
2021/10/10 05:02:05;;;;;;;16.67;10.32;;;4.20;99.90;;;;;;6241423;22;20469;-81
2021/10/10 05:04:31;;;;;;;16.60;11.57;;;4.20;99.90;;;;;;6242103;23;20004;-81
2021/10/10 05:06:56;;;;;;;16.63;9.77;;;4.20;99.90;;;;;;6241944;23;20000;-81
2021/10/10 05:09:22;;;;;;;19.75;10.52;;;4.20;99.90;;;;;;6240552;23;20011;-81
2021/10/10 05:11:47;;;;;;;14.80;9.82;;;4.20;99.90;;;;;;6264545;22;20015;-81
2021/10/10 05:14:13;;;;;;;17.50;10.35;;;4.10;99.80;;;;;;6241544;23;20004;-80
2021/10/10 05:16:38;;;;;;;13.93;9.40;;;4.10;99.70;;;;;;6241131;23;20073;-81
2021/10/10 05:19:04;;;;;;;15.52;11.05;;;4.00;99.70;;;;;;6240395;23;20011;-80
2021/10/10 05:21:29;;;;;;;16.13;10.07;;;4.00;99.60;;;;;;6241700;23;20001;-81
2021/10/10 05:23:54;;;;;;;19.90;10.95;;;3.90;99.60;;;;;;6241066;23;20377;-81
2021/10/10 05:26:20;;;;;;;18.65;10.75;;;3.90;99.60;;;;;;6241341;23;20040;-80
2021/10/10 05:28:45;;;;;;;16.50;10.25;;;3.90;99.60;;;;;;6240962;23;20100;-80
2021/10/10 05:31:11;;;;;;;15.95;10.32;;;3.90;99.70;;;;;;6239558;23;20054;-81
2021/10/10 05:33:36;;;;;;;16.73;10.52;;;3.80;99.70;;;;;;6241902;23;20008;-81
2021/10/10 05:36:02;;;;;;;15.38;10.93;;;3.80;99.80;;;;;;6240742;23;20072;-81
2021/10/10 05:38:27;;;;;;;18.05;11.68;;;3.80;99.90;;;;;;6239272;23;20367;-81
2021/10/10 05:40:53;;;;;;;18.15;10.95;;;3.80;99.90;;;;;;6239258;23;20327;-81
2021/10/10 05:43:19;;;;;;;19.65;11.85;;;3.80;99.90;;;;;;6240725;23;20019;-82
2021/10/10 05:45:45;;;;;;;17.80;11.60;;;3.80;99.90;;;;;;6241346;23;20005;-80
2021/10/10 05:48:10;;;;;;;27.95;12.70;;;3.80;99.90;;;;;;6240054;23;20004;-81
2021/10/10 05:50:35;;;;;;;21.67;12.43;;;3.80;99.90;;;;;;6239626;23;20000;-81
2021/10/10 05:53:07;;;;;;;23.02;13.57;;;3.80;99.90;;;;;;6240428;23;20087;-80
2021/10/10 05:55:34;;;;;;;22.05;12.45;;;3.80;99.90;;;;;;6238808;23;20312;-81
2021/10/10 05:58:03;;;;;;;19.92;13.38;;;3.80;99.90;;;;;;6240190;22;20011;-81
2021/10/10 06:00:28;;;;;;;18.23;11.93;;;3.80;99.90;;;;;;6241879;22;20004;-80
2021/10/10 06:02:53;;;;;;;23.02;12.77;;;3.90;99.90;;;;;;6240389;23;20131;-81
2021/10/10 06:05:19;;;;;;;22.70;11.88;;;3.90;99.90;;;;;;6239605;23;20003;-81
2021/10/10 06:07:44;;;;;;;19.55;11.98;;;3.90;99.90;;;;;;6240279;23;20092;-81
2021/10/10 06:10:10;;;;;;;22.92;13.07;;;3.90;99.90;;;;;;6239623;23;20004;-82
2021/10/10 06:12:38;;;;;;;21.73;13.25;;;3.90;99.90;;;;;;6240537;23;20268;-82
2021/10/10 06:15:05;;;;;;;20.38;11.90;;;4.00;99.90;;;;;;6240601;23;20000;-82
2021/10/10 06:17:32;;;;;;;18.65;11.05;;;4.00;99.90;;;;;;6241273;23;20035;-80
2021/10/10 06:19:59;;;;;;;19.67;11.85;;;4.00;99.90;;;;;;6240170;23;20790;-82
2021/10/10 06:22:24;;;;;;;19.58;12.88;;;4.10;99.90;;;;;;6240470;23;20000;-80
2021/10/10 06:24:50;;;;;;;22.67;12.18;;;4.10;99.90;;;;;;6240965;23;20031;-81
2021/10/10 06:27:17;;;;;;;18.33;11.35;;;4.20;99.90;;;;;;6241022;23;20005;-80
2021/10/10 06:29:47;;;;;;;22.80;13.73;;;4.20;99.90;;;;;;6240404;22;20264;-78
2021/10/10 06:32:12;;;;;;;25.17;12.63;;;4.20;99.90;;;;;;6240885;22;20082;-81
2021/10/10 06:34:39;;;;;;;16.63;11.45;;;4.30;99.90;;;;;;6239799;23;20525;-81
2021/10/10 06:37:04;;;;;;;16.92;11.52;;;4.30;99.90;;;;;;6241150;23;19996;-81
2021/10/10 06:39:30;;;;;;;18.52;11.82;;;4.40;99.90;;;;;;6240384;23;19996;-79
2021/10/10 06:41:56;;;;;;;17.95;11.68;;;4.50;99.90;;;;;;6240707;23;20415;-81
2021/10/10 06:44:21;;;;;;;16.05;11.38;;;4.50;99.90;;;;;;6240694;23;20069;-81
2021/10/10 06:46:47;;;;;;;18.77;11.27;;;4.60;99.90;;;;;;6240831;23;20598;-80
2021/10/10 06:49:13;;;;;;;16.08;10.93;;;4.60;99.90;;;;;;6240214;23;20000;-81
2021/10/10 06:51:39;;;;;;;15.63;9.85;;;4.70;99.90;;;;;;6240283;23;20004;-81
2021/10/10 06:54:04;;;;;;;16.38;10.52;;;4.80;99.90;;;;;;6239407;23;20008;-81
2021/10/10 06:56:30;;;;;;;16.63;10.15;;;4.90;99.90;;;;;;6238770;23;20026;-82
2021/10/10 06:58:55;;;;;;;16.27;10.25;;;4.90;99.90;;;;;;6240463;23;19992;-83
2021/10/10 07:01:21;;;;;;;14.35;9.90;;;5.00;99.90;;;;;;6241017;23;20548;-81
2021/10/10 07:03:46;;;;;;;17.80;10.85;;;5.10;99.90;;;;;;6240375;23;20075;-82
2021/10/10 07:06:12;;;;;;;18.33;10.73;;;5.20;99.90;;;;;;6240975;23;20034;-80
2021/10/10 07:08:37;;;;;;;17.75;9.82;;;5.30;99.60;;;;;;6238600;23;20075;-81
2021/10/10 07:11:03;;;;;;;14.93;10.25;;;5.30;99.70;;;;;;6238816;23;20007;-81
2021/10/10 07:13:28;;;;;;;15.68;10.07;;;5.40;99.60;;;;;;6239047;23;20060;-81
2021/10/10 07:15:55;;;;;;;20.98;11.38;;;5.50;99.40;;;;;;6241745;23;20037;-82
2021/10/10 07:18:31;;;;;;;15.32;10.45;;;5.60;99.30;;;;;;6242618;22;20296;-81
2021/10/10 07:21:20;;;;;;;14.32;9.90;;;5.60;99.10;;;;;;6241758;22;19997;-81
2021/10/10 07:26:29;;;;;;;17.80;9.95;;;5.80;98.90;;;;;;6242462;23;20057;-80
2021/10/10 07:28:55;;;;;;;16.73;10.23;;;5.90;98.80;;;;;;6240520;23;20032;-79
2021/10/10 07:31:20;;;;;;;15.65;9.63;;;5.90;98.80;;;;;;6242574;23;20522;-80
2021/10/10 07:33:46;;;;;;;15.82;10.35;;;6.00;98.70;;;;;;6242766;23;20012;-80
2021/10/10 07:36:12;;;;;;;12.82;8.90;;;6.10;98.70;;;;;;6242954;23;19996;-80
2021/10/10 07:38:38;;;;;;;16.65;10.68;;;6.20;98.40;;;;;;6242135;23;20015;-80
2021/10/10 07:41:04;;;;;;;15.52;10.85;;;6.30;98.30;;;;;;6241506;23;20004;-80
2021/10/10 07:43:31;;;;;;;16.30;9.63;;;6.30;98.30;;;;;;6241625;23;20011;-80
2021/10/10 07:46:10;;;;;;;13.73;9.63;;;6.40;98.10;;;;;;6242648;23;20482;-80
2021/10/10 07:48:36;;;;;;;14.98;9.93;;;6.50;98.10;;;;;;6242079;23;20000;-81
2021/10/10 07:51:03;;;;;;;16.77;9.75;;;6.60;97.90;;;;;;6241694;23;20004;-80
2021/10/10 07:53:28;;;;;;;19.17;10.82;;;6.70;97.70;;;;;;6242978;23;20008;-79
2021/10/10 07:55:54;;;;;;;14.93;9.52;;;6.80;97.60;;;;;;6266010;22;20435;-81
2021/10/10 07:58:19;;;;;;;14.25;10.23;;;6.80;97.60;;;;;;6241476;23;20001;-79
2021/10/10 08:00:45;;;;;;;17.15;10.18;;;6.90;97.50;;;;;;6242243;23;20478;-79
2021/10/10 08:03:10;;;;;;;13.25;9.23;;;7.00;97.40;;;;;;6243156;23;20015;-83
2021/10/10 08:05:42;;;;;;;23.17;10.32;;;7.10;97.40;;;;;;6242525;23;20026;-81
2021/10/10 08:08:08;;;;;;;14.98;10.70;;;7.10;97.40;;;;;;6241794;22;20000;-80
2021/10/10 08:10:34;;;;;;;20.33;9.52;;;7.20;97.30;;;;;;6265773;22;20011;-79
2021/10/10 08:13:00;;;;;;;15.27;9.57;;;7.40;97.00;;;;;;6240478;23;20012;-80
2021/10/10 08:15:26;;;;;;;14.13;9.27;;;7.40;96.60;;;;;;6243093;23;20000;-81
2021/10/10 08:17:52;;;;;;;19.15;10.13;;;7.50;96.50;;;;;;6241789;23;20054;-80
2021/10/10 08:20:17;;;;;;;13.85;9.35;;;7.60;96.30;;;;;;6242640;23;20032;-79
2021/10/10 08:22:45;;;;;;;12.20;8.27;;;7.70;96.30;;;;;;6242419;23;20437;-81
2021/10/10 08:25:11;;;;;;;15.82;9.70;;;7.80;96.20;;;;;;6242182;23;20007;-81
2021/10/10 08:27:38;;;;;;;14.85;9.38;;;8.00;96.20;;;;;;6242221;23;20011;-81
2021/10/10 08:30:06;;;;;;;16.10;9.02;;;8.10;96.10;;;;;;6239594;23;20015;-82
2021/10/10 08:32:32;;;;;;;13.85;8.40;;;8.20;95.90;;;;;;6240830;23;20057;-81
2021/10/10 08:34:57;;;;;;;10.90;8.10;;;8.30;95.70;;;;;;6240933;23;20453;-82
2021/10/10 08:37:23;;;;;;;15.38;8.77;;;8.40;95.60;;;;;;6242720;23;20063;-80
2021/10/10 08:39:49;;;;;;;12.13;8.63;;;8.50;95.10;;;;;;6241679;23;20008;-81
2021/10/10 08:42:18;;;;;;;15.00;8.07;;;8.60;94.90;;;;;;6239619;23;20008;-83
2021/10/10 08:44:47;;;;;;;14.95;8.57;;;8.70;94.90;;;;;;6241295;23;20042;-82
2021/10/10 08:47:15;;;;;;;10.93;7.68;;;8.90;94.40;;;;;;6241200;23;20004;-80
2021/10/10 08:49:40;;;;;;;13.57;8.73;;;9.00;94.10;;;;;;6242026;23;20079;-82
2021/10/10 08:52:14;;;;;;;13.27;8.23;;;9.10;94.40;;;;;;6241978;23;20034;-82
2021/10/10 08:54:41;;;;;;;17.83;8.32;;;9.20;94.10;;;;;;6242214;23;20008;-81
2021/10/10 08:57:08;;;;;;;11.15;7.68;;;9.30;94.00;;;;;;6240498;23;20514;-82
2021/10/10 08:59:38;;;;;;;12.55;7.53;;;9.40;93.90;;;;;;6239694;23;20011;-81
2021/10/10 09:02:06;;;;;;;10.18;7.60;;;9.50;93.80;;;;;;6242904;23;20011;-83
2021/10/10 09:04:41;;;;;;;11.73;7.65;;;9.60;93.10;;;;;;6242805;23;20004;-82
2021/10/10 09:07:07;;;;;;;11.65;7.85;;;9.70;92.70;;;;;;6242037;23;20004;-81
2021/10/10 09:09:37;;;;;;;11.65;7.50;;;9.90;92.70;;;;;;6245161;23;20075;-83
2021/10/10 09:12:08;;;;;;;10.45;6.97;;;10.10;91.50;;;;;;6240981;23;20001;-83
2021/10/10 09:14:42;;;;;;;13.93;7.25;;;10.20;91.90;;;;;;6241270;23;20012;-81
2021/10/10 09:17:22;;;;;;;9.57;6.65;;;10.30;91.60;;;;;;6240403;23;20107;-80
2021/10/10 09:19:58;;;;;;;12.27;7.07;;;10.40;91.50;;;;;;6241119;23;20051;-81
2021/10/10 09:22:25;;;;;;;11.23;7.07;;;10.60;91.10;;;;;;6241872;23;20056;-81
2021/10/10 09:24:52;;;;;;;11.70;7.28;;;10.60;90.50;;;;;;6243132;23;20000;-81
2021/10/10 09:27:20;;;;;;;14.43;8.10;;;10.80;90.60;;;;;;6242760;23;20039;-80
2021/10/10 09:29:49;;;;;;;13.95;7.18;;;10.80;90.20;;;;;;6242665;23;20019;-81
2021/10/10 09:32:20;;;;;;;10.93;6.43;;;11.00;90.30;;;;;;6241394;23;20129;-81
2021/10/10 09:34:49;;;;;;;10.05;6.68;;;11.10;90.30;;;;;;6240400;23;20015;-80
2021/10/10 09:37:23;;;;;;;13.55;7.38;;;11.20;88.80;;;;;;6243730;23;20000;-79
2021/10/10 09:40:01;;;;;;;10.02;6.72;;;11.30;88.00;;;;;;6241272;23;20012;-81
2021/10/10 09:42:38;;;;;;;9.82;5.97;;;11.40;87.10;;;;;;6241147;23;20020;-81
2021/10/10 09:46:09;;;;;;;8.98;6.38;;;11.50;86.20;;;;;;6242560;23;20010;-81
2021/10/10 09:48:11;;;;;;;9.85;6.63;;;11.60;86.30;;;;;;6229251;23;20000;-80
2021/10/10 09:50:37;;;;;;;11.82;7.10;;;11.70;85.70;;;;;;6241506;23;20074;-81
2021/10/10 09:53:10;;;;;;;10.27;6.32;;;11.70;86.50;;;;;;6241529;23;20016;-81
2021/10/10 09:55:59;;;;;;;10.10;6.38;;;11.80;85.40;;;;;;6240670;23;20000;-81
2021/10/10 09:58:38;;;;;;;11.10;6.72;;;11.90;84.90;;;;;;6240431;23;20439;-80
2021/10/10 10:01:14;;;;;;;12.95;6.93;;;11.90;85.50;;;;;;6240225;23;20008;-80
2021/10/10 10:03:59;;;;;;;14.05;5.97;;;12.00;85.80;;;;;;6241983;23;20004;-81
2021/10/10 10:06:32;;;;;;;9.07;5.60;;;12.10;85.90;;;;;;6241395;23;20082;-81
2021/10/10 10:09:03;;;;;;;14.68;6.60;;;12.20;85.70;;;;;;6241049;23;20079;-81
2021/10/10 10:11:34;;;;;;;8.05;6.13;;;12.30;85.90;;;;;;6241213;23;20000;-81
2021/10/10 10:14:04;;;;;;;9.55;6.25;;;12.30;85.40;;;;;;6241083;23;20019;-81
2021/10/10 10:16:31;;;;;;;11.52;6.60;;;12.40;84.70;;;;;;6241116;23;19996;-81
2021/10/10 10:18:59;;;;;;;10.95;6.57;;;12.50;84.70;;;;;;6239935;23;20414;-80
2021/10/10 10:21:27;;;;;;;9.07;5.97;;;12.60;84.50;;;;;;6241053;23;20388;-80
2021/10/10 10:23:58;;;;;;;12.30;6.50;;;12.60;82.60;;;;;;6241965;23;20166;-80
2021/10/10 10:26:23;;;;;;;9.23;5.47;;;12.70;83.70;;;;;;6240785;22;20011;-81
2021/10/10 10:28:49;;;;;;;10.65;5.88;;;12.80;82.10;;;;;;6240569;23;20075;-81
2021/10/10 10:31:15;;;;;;;7.57;5.10;;;12.90;81.30;;;;;;6240572;23;20411;-81
2021/10/10 10:33:41;;;;;;;10.15;5.50;;;13.00;80.90;;;;;;6240597;23;20015;-80
2021/10/10 10:36:06;;;;;;;13.60;6.55;;;13.00;81.20;;;;;;6240780;23;20078;-81
2021/10/10 10:38:41;;;;;;;9.23;6.00;;;13.10;81.20;;;;;;6240694;23;20481;-81
2021/10/10 10:41:07;;;;;;;12.00;5.90;;;13.20;80.00;;;;;;6240073;23;20687;-81
2021/10/10 10:43:35;;;;;;;13.02;6.18;;;13.30;80.60;;;;;;6241032;23;20042;-81
2021/10/10 10:46:09;;;;;;;9.00;5.63;;;13.30;81.90;;;;;;6241193;23;20000;-79
2021/10/10 10:48:36;;;;;;;8.88;5.40;;;13.40;79.70;;;;;;6238812;23;20004;-79
2021/10/10 10:51:41;;;;;;;11.02;5.88;;;13.50;79.40;;;;;;6240593;23;20074;-80
2021/10/10 10:54:38;;;;;;;11.07;6.28;;;13.60;79.00;;;;;;6240395;23;20040;-80
2021/10/10 10:57:35;;;;;;;10.60;6.05;;;13.70;77.50;;;;;;6240997;23;20000;-81
2021/10/10 11:00:09;;;;;;;8.43;5.32;;;13.70;78.60;;;;;;6240816;22;20000;-79
2021/10/10 11:03:02;;;;;;;10.40;5.72;;;13.90;78.70;;;;;;6238793;23;20032;-82
2021/10/10 11:05:35;;;;;;;8.63;5.70;;;14.00;78.20;;;;;;6240005;23;20296;-81
2021/10/10 11:08:06;;;;;;;10.60;5.88;;;14.10;76.50;;;;;;6239674;23;20008;-81
2021/10/10 11:10:33;;;;;;;13.65;5.85;;;14.20;76.90;;;;;;6243055;23;19996;-81
2021/10/10 11:13:07;;;;;;;8.52;5.38;;;14.30;76.90;;;;;;6240951;23;20020;-80
2021/10/10 11:15:53;;;;;;;9.63;4.97;;;14.40;77.60;;;;;;6241343;23;20509;-82
2021/10/10 11:18:27;;;;;;;8.30;4.57;;;14.50;74.90;;;;;;6243359;23;20046;-82
2021/10/10 11:20:56;;;;;;;7.78;5.32;;;14.60;73.60;;;;;;6244622;23;20027;-80
2021/10/10 11:23:23;;;;;;;7.00;4.53;;;14.60;72.70;;;;;;6243893;23;20046;-80
2021/10/10 11:25:50;;;;;;;8.48;5.47;;;14.60;71.20;;;;;;6241976;22;20028;-80
2021/10/10 11:28:40;;;;;;;7.55;4.47;;;14.80;73.20;;;;;;6240992;23;19996;-81
2021/10/10 11:31:18;;;;;;;9.40;4.40;;;14.90;70.50;;;;;;6241205;23;20002;-82
2021/10/10 11:33:47;;;;;;;10.10;4.40;;;14.90;71.70;;;;;;6239687;23;20012;-80
2021/10/10 11:36:14;;;;;;;8.85;4.80;;;15.00;71.40;;;;;;6241127;23;20000;-80
2021/10/10 11:39:09;;;;;;;8.60;4.60;;;15.00;72.30;;;;;;6240041;23;20032;-81
2021/10/10 11:41:50;;;;;;;7.40;3.92;;;15.10;72.50;;;;;;6238040;22;20482;-80
2021/10/10 11:44:36;;;;;;;6.25;3.92;;;15.30;69.30;;;;;;6240635;23;20062;-80
2021/10/10 11:47:04;;;;;;;6.68;4.30;;;15.40;70.20;;;;;;6240864;23;20412;-80
2021/10/10 11:49:45;;;;;;;5.70;3.67;;;15.50;68.90;;;;;;6240102;23;20411;-79
2021/10/10 11:52:25;;;;;;;6.78;4.13;;;15.60;67.70;;;;;;6239934;23;20395;-80
2021/10/10 11:55:06;;;;;;;6.70;4.22;;;15.70;66.10;;;;;;6241122;23;20005;-80
2021/10/10 11:57:31;;;;;;;5.53;3.88;;;15.80;67.80;;;;;;6240175;23;19996;-80
2021/10/10 12:00:03;;;;;;;6.55;3.50;;;15.80;68.70;;;;;;6240228;23;20327;-80
2021/10/10 12:02:37;;;;;;;8.68;5.18;;;15.90;66.90;;;;;;6241506;23;20000;-80
2021/10/10 12:05:08;;;;;;;7.55;4.13;;;16.00;67.40;;;;;;6240492;23;20450;-79
2021/10/10 12:07:34;;;;;;;6.20;3.60;;;16.10;64.90;;;;;;6241657;23;20080;-80
2021/10/10 12:10:01;;;;;;;7.32;4.13;;;16.10;66.40;;;;;;6242035;23;20030;-79
2021/10/10 12:12:26;;;;;;;4.72;3.63;;;16.20;65.60;;;;;;6241389;23;20007;-80
2021/10/10 12:14:55;;;;;;;5.85;3.10;;;16.30;63.10;;;;;;6242609;23;20009;-80
2021/10/10 12:17:40;;;;;;;5.53;3.38;;;16.30;66.80;;;;;;6240093;23;20451;-80
2021/10/10 12:20:17;;;;;;;6.05;4.10;;;16.40;65.10;;;;;;6242735;23;20001;-80
2021/10/10 12:22:53;;;;;;;7.47;4.22;;;16.50;66.30;;;;;;6241741;23;20398;-79
2021/10/10 12:25:27;;;;;;;6.45;4.18;;;16.60;63.20;;;;;;6240753;23;20000;-79
2021/10/10 12:28:08;;;;;;;6.85;3.72;;;16.70;62.90;;;;;;6240963;23;20023;-80
2021/10/10 12:30:42;;;;;;;10.20;4.05;;;16.70;62.70;;;;;;6242766;23;20023;-80
2021/10/10 12:33:40;;;;;;;6.82;3.65;;;16.80;63.80;;;;;;6241859;23;20066;-80
2021/10/10 12:36:05;;;;;;;6.90;3.55;;;16.90;63.30;;;;;;6242164;23;20000;-80
2021/10/10 12:38:34;;;;;;;6.65;3.72;;;16.90;62.90;;;;;;6241400;23;20419;-80
2021/10/10 12:41:23;;;;;;;5.22;3.92;;;16.90;62.20;;;;;;6239741;23;20015;-80
2021/10/10 12:43:56;;;;;;;6.75;3.30;;;17.00;64.30;;;;;;6242077;23;20008;-80
2021/10/10 12:46:23;;;;;;;;;;;17.10;62.60;;;;;;6242270;23;20072;-80
2021/10/10 12:49:05;;;;;;;4.28;2.90;;;17.10;62.70;;;;;;6241431;22;19954;-81
2021/10/10 12:51:31;;;;;;;5.03;3.50;;;17.20;62.90;;;;;;6242113;23;20003;-81